Flight Track Log - Related Links

Times and Time Zones

All times are in EDT time to prevent confusion due to time zone crossing. See the EJA929 flight status page for this flight to view local times or setup timezone preferences in your user account.

Time Position Orientation Groundspeed Altitude Reporting Facility
EDT Latitude Longitude Course Direction KTS MPH feet Rate Location/Type
Tue 04:30:38 PM 40.9000 -74.0333 346° North 198 228 3,300  Level New York TRACON
Tue 04:31:38 PM 40.9500 -74.0500 346° North 233 268 5,100 1,350 Climbing New York TRACON
Tue 04:32:38 PM 40.9667 -74.1500 282° West 275 316 6,000 450 Climbing New York TRACON
Tue 04:33:38 PM 41.0333 -74.1667 349° North 286 329 6,000 300 Level New York TRACON
Tue 04:34:38 PM 41.1000 -74.1500 11° North 264 304 6,600 1,700 Climbing New York TRACON
Tue 04:35:38 PM 41.1667 -74.1000 29° Northeast 281 323 9,400 1,700 Climbing New York TRACON
Tue 04:36:38 PM 41.2000 -73.9833 69° East 315 362 10,000 300 Climbing New York TRACON
Tue 04:37:38 PM 41.2167 -73.8500 81° East 381 438 10,000  Level New York TRACON
Tue 04:38:38 PM 41.2500 -73.7167 72° East 400 460 10,000  Level New York TRACON
Tue 04:39:38 PM 41.2833 -73.5833 72° East 397 457 10,000  Level New York TRACON
Tue 04:40:38 PM 41.3667 -73.4667 46° Northeast 383 441 10,000  Level New York TRACON
Tue 04:41:37 PM 41.4336 -73.3758 45° Northeast 385 443 10,000  Level Boston Center
Tue 04:42:14 PM 41.4781 -73.3156 45° Northeast 386 444 10,000  Level Boston Center
Tue 04:43:18 PM 41.5558 -73.2114 45° Northeast 387 445 10,000  Level Boston Center
Tue 04:44:18 PM 41.6231 -73.1150 47° Northeast 320 368 10,000 -905 Level Boston Center
Tue 04:45:24 PM 41.6861 -73.0322 44° Northeast 282 325 8,100 -1,878 Descending Boston Center
Tue 04:46:13 PM 41.7303 -72.9714 46° Northeast 268 308 6,400 -1,795 Descending Boston Center
Tue 04:47:31 PM 41.7908 -72.8856 47° Northeast 246 283 4,300 -1,511 Descending Boston Center
Tue 04:48:32 PM 41.8350 -72.8244 46° Northeast 216 249 2,900 -1,200 Descending Boston Center
Tue 04:49:26 PM 41.8683 -72.7831 43° Northeast 177 204 2,000 -944 Descending Boston Center
Tue 04:50:20 PM 41.8978 -72.7442 45° Northeast 143 165 1,200 -756 Descending Boston Center
Tue 04:51:33 PM 41.9250 -72.7081 45° Northeast 116 133 400 -658 Descending Boston Center

Login

Don't have an account? Register now (free) for customized features, flight alerts, and more!